Time;durP1;ratioP1;P1;durP2;ratioP2;P2;SDS_P1;SDS_P2;PMS_P1;PMS_P2;Temp;Humidity;BMP_temperature;BMP_pressure;BME280_temperature;BME280_humidity;BME280_pressure;Samples;Min_cycle;Max_cycle;Signal;HPM_P1;HPM_P2
2022/07/21 00:00:29;;;;;;;;;3.75;3.00;;;;;26.11;48.77;101405.28;2095124;28;47471;-67
2022/07/21 00:01:29;;;;;;;;;2.00;2.00;;;;;26.10;48.84;101409.00;2101346;27;47863;-67
2022/07/21 00:02:30;;;;;;;;;2.00;2.00;;;;;26.09;48.67;101395.50;2103792;27;47725;-66
2022/07/21 00:03:30;;;;;;;;;3.00;2.00;;;;;26.09;48.96;101400.94;2117487;27;47382;-67
2022/07/21 00:04:31;;;;;;;;;3.00;2.00;;;;;26.07;49.15;101398.34;2113539;27;47244;-67
2022/07/21 00:05:31;;;;;;;;;2.00;2.00;;;;;26.07;49.22;101392.91;2117650;27;47842;-66
2022/07/21 00:06:32;;;;;;;;;3.25;3.25;;;;;26.05;48.79;101391.31;2113863;27;47221;-68
2022/07/21 00:07:33;;;;;;;;;2.00;2.00;;;;;26.05;49.09;101386.72;2118022;27;47548;-67
2022/07/21 00:08:33;;;;;;;;;3.00;3.00;;;;;26.05;49.01;101394.88;2116052;27;47371;-63
2022/07/21 00:09:35;;;;;;;;;2.33;1.33;;;;;26.05;48.59;101389.44;2118628;27;47127;-67
2022/07/21 00:10:35;;;;;;;;;2.00;2.00;;;;;26.06;49.14;101390.31;2087801;28;47400;-67
2022/07/21 00:11:36;;;;;;;;;2.33;2.00;;;;;26.05;49.23;101384.00;2091813;27;48069;-67
2022/07/21 00:12:37;;;;;;;;;3.80;2.00;;;;;26.06;48.86;101380.31;2115129;27;48329;-67
2022/07/21 00:13:37;;;;;;;;;2.50;2.50;;;;;26.06;49.12;101379.44;2116933;27;48133;-64
2022/07/21 00:14:38;;;;;;;;;1.50;1.50;;;;;26.06;48.80;101384.88;2106854;27;47713;-67
2022/07/21 00:15:38;;;;;;;;;2.75;2.25;;;;;26.05;49.15;101388.59;2109036;27;47729;-66
2022/07/21 00:16:40;;;;;;;;;2.00;2.00;;;;;26.05;49.24;101388.59;2116668;27;47362;-68
2022/07/21 00:17:40;;;;;;;;;2.00;2.00;;;;;26.04;48.99;101382.28;2115961;27;47331;-66
2022/07/21 00:18:41;;;;;;;;;3.33;3.33;;;;;26.03;48.92;101385.09;2114943;27;47409;-66
2022/07/21 00:19:41;;;;;;;;;3.50;3.25;;;;;26.04;49.25;101384.09;2107503;27;47419;-64
2022/07/21 00:20:42;;;;;;;;;3.00;3.00;;;;;26.04;49.12;101387.72;2106092;27;47916;-63
2022/07/21 00:21:42;;;;;;;;;2.50;2.50;;;;;26.05;49.21;101388.59;2110993;27;47595;-64
2022/07/21 00:22:44;;;;;;;;;1.25;1.25;;;;;26.04;48.58;101379.56;2104007;27;47095;-65
2022/07/21 00:23:44;;;;;;;;;3.00;3.00;;;;;26.05;49.37;101381.28;2108318;27;48026;-64
2022/07/21 00:24:45;;;;;;;;;2.00;2.00;;;;;26.05;48.62;101383.13;2115950;27;47678;-65
2022/07/21 00:25:45;;;;;;;;;1.67;1.67;;;;;26.04;48.78;101379.56;2116707;27;47542;-65
2022/07/21 00:26:45;;;;;;;;;3.25;3.25;;;;;26.04;48.93;101381.38;2115397;27;47294;-66
2022/07/21 00:27:46;;;;;;;;;2.50;2.50;;;;;26.03;48.85;101377.78;2116948;27;47840;-65
2022/07/21 00:28:47;;;;;;;;;2.00;2.00;;;;;26.03;48.98;101379.63;2116200;27;47560;-64
2022/07/21 00:29:48;;;;;;;;;3.00;3.00;;;;;26.02;49.19;101376.06;2114275;27;45917;-66
2022/07/21 00:30:48;;;;;;;;;3.25;3.25;;;;;26.01;49.08;101381.63;2115474;27;47294;-66
2022/07/21 00:31:48;;;;;;;;;2.00;2.00;;;;;26.02;48.92;101378.78;2116727;27;47888;-65
2022/07/21 00:32:49;;;;;;;;;5.00;5.00;;;;;26.02;49.04;101380.63;2106887;27;47021;-66
2022/07/21 00:33:51;;;;;;;;;2.25;2.25;;;;;26.00;48.85;101377.16;2106887;27;47747;-65
2022/07/21 00:34:51;;;;;;;;;2.00;2.00;;;;;26.00;49.40;101379.88;2116068;27;47476;-66
2022/07/21 00:35:52;;;;;;;;;3.25;3.25;;;;;25.99;48.81;101384.47;2115827;27;48001;-67
2022/07/21 00:36:52;;;;;;;;;1.75;1.75;;;;;25.99;48.83;101379.00;2115909;27;47279;-66
2022/07/21 00:37:52;;;;;;;;;4.25;3.75;;;;;25.97;49.20;101391.88;2116751;27;47381;-66
2022/07/21 00:38:53;;;;;;;;;1.33;1.33;;;;;25.96;49.03;101390.13;2116575;27;47750;-67
2022/07/21 00:39:54;;;;;;;;;2.00;2.00;;;;;25.96;49.80;101389.28;2109013;27;46968;-61
2022/07/21 00:40:54;;;;;;;;;2.75;2.75;;;;;25.94;49.52;101391.25;2117195;27;48051;-65
2022/07/21 00:41:55;;;;;;;;;2.00;2.00;;;;;25.93;49.59;101387.66;2104049;27;47690;-66
2022/07/21 00:42:56;;;;;;;;;3.00;2.25;;;;;25.94;49.16;101391.25;2107680;27;47847;-64
2022/07/21 00:43:56;;;;;;;;;2.50;2.50;;;;;25.93;49.34;101394.94;2115948;27;47523;-66
2022/07/21 00:44:57;;;;;;;;;2.00;2.00;;;;;25.93;49.51;101393.09;2117506;27;47566;-66
2022/07/21 00:45:57;;;;;;;;;2.00;2.00;;;;;25.92;49.24;101388.66;2115496;27;47518;-65
2022/07/21 00:46:58;;;;;;;;;2.00;2.00;;;;;25.92;49.47;101393.19;2108083;27;47604;-65
2022/07/21 00:47:58;;;;;;;;;4.00;4.00;;;;;25.91;49.66;101397.75;2103637;27;48685;-65
2022/07/21 00:48:59;;;;;;;;;2.75;2.25;;;;;25.90;49.20;101385.16;2105565;27;47345;-66
2022/07/21 00:50:03;;;;;;;;;3.00;3.00;;;;;25.91;49.10;101383.28;2098864;27;48168;-65
2022/07/21 00:51:04;;;;;;;;;4.20;4.00;;;;;25.90;49.86;101390.59;2108144;27;47882;-67
2022/07/21 00:52:04;;;;;;;;;5.75;4.00;;;;;25.89;49.34;101388.84;2113920;27;47958;-64
2022/07/21 00:53:05;;;;;;;;;4.00;4.00;;;;;25.88;49.28;101387.13;2111942;27;47776;-66
2022/07/21 00:54:05;;;;;;;;;4.00;4.00;;;;;25.88;49.89;101391.69;2110551;27;47698;-66
2022/07/21 00:55:09;;;;;;;;;3.00;2.67;;;;;25.87;49.49;101393.53;2117321;27;47502;-66
2022/07/21 00:56:09;;;;;;;;;3.00;3.00;;;;;25.87;49.59;101393.53;2103211;27;45769;-66
2022/07/21 00:57:10;;;;;;;;;4.00;4.00;;;;;25.88;49.18;101381.69;2108544;27;47131;-65
2022/07/21 00:58:11;;;;;;;;;3.00;3.00;;;;;25.88;49.78;101389.84;2112440;27;47736;-66
2022/07/21 00:59:12;;;;;;;;;4.00;4.00;;;;;25.87;49.35;101385.38;2111356;27;47068;-66
2022/07/21 01:00:20;;;;;;;;;2.40;2.40;;;;;25.87;49.29;101385.38;2113713;27;47287;-66
2022/07/21 01:01:20;;;;;;;;;4.40;4.00;;;;;25.86;49.65;101385.50;2117385;27;47655;-66
2022/07/21 01:02:21;;;;;;;;;3.75;3.75;;;;;25.86;49.62;101382.78;2112559;27;47237;-67
2022/07/21 01:03:22;;;;;;;;;4.25;4.25;;;;;25.85;49.41;101375.59;2117282;27;47508;-67
2022/07/21 01:04:22;;;;;;;;;1.00;1.00;;;;;25.86;49.85;101380.94;2110673;27;47633;-63
2022/07/21 01:05:23;;;;;;;;;2.33;2.33;;;;;25.84;49.86;101380.19;2117642;27;47500;-66
2022/07/21 01:06:25;;;;;;;;;5.50;4.00;;;;;25.85;49.70;101381.03;2115521;27;47836;-67
2022/07/21 01:07:25;;;;;;;;;3.00;3.00;;;;;25.83;49.09;101377.59;2117451;27;47977;-66
2022/07/21 01:08:27;;;;;;;;;2.75;2.75;;;;;25.83;49.74;101381.16;2114231;27;48169;-65
2022/07/21 01:09:28;;;;;;;;;3.60;3.60;;;;;25.80;49.32;101378.69;2117530;27;49839;-67
2022/07/21 01:10:30;;;;;;;;;2.00;2.00;;;;;25.79;49.80;101377.81;2110415;27;47859;-67
2022/07/21 01:11:30;;;;;;;;;3.00;3.00;;;;;25.78;49.68;101373.34;2100694;27;47724;-66
2022/07/21 01:12:31;;;;;;;;;3.00;3.00;;;;;25.78;50.11;101380.63;2106045;27;47659;-66
2022/07/21 01:13:32;;;;;;;;;4.00;4.00;;;;;25.77;49.78;101384.34;2109433;27;47763;-68
2022/07/21 01:14:33;;;;;;;;;3.00;3.00;;;;;25.75;49.65;101379.00;2109828;27;47144;-66
2022/07/21 01:15:34;;;;;;;;;6.50;4.00;;;;;25.74;49.44;101379.13;2117350;27;47747;-64
2022/07/21 01:16:34;;;;;;;;;3.40;3.40;;;;;25.74;49.52;101390.00;2113772;27;47455;-63
2022/07/21 01:17:35;;;;;;;;;2.75;2.75;;;;;25.74;49.81;101381.84;2117633;27;47712;-65
2022/07/21 01:18:36;;;;;;;;;4.00;3.00;;;;;25.74;49.62;101385.44;2114569;27;47122;-65
2022/07/21 01:19:37;;;;;;;;;3.00;3.00;;;;;25.75;49.90;101386.31;2108254;27;45748;-67
2022/07/21 01:20:41;;;;;;;;;4.00;4.00;;;;;25.75;50.17;101383.59;2102816;27;47366;-64
2022/07/21 01:21:43;;;;;;;;;3.40;3.40;;;;;25.73;49.72;101380.97;2117540;27;47959;-65
2022/07/21 01:22:47;;;;;;;;;5.00;4.40;;;;;25.73;49.61;101388.28;2104661;27;47859;-66
2022/07/21 01:23:47;;;;;;;;;2.80;2.80;;;;;25.72;50.27;101390.13;2107898;27;47484;-66
2022/07/21 01:24:48;;;;;;;;;4.00;3.00;;;;;25.73;50.33;101388.28;2111468;27;48016;-67
2022/07/21 01:25:50;;;;;;;;;3.75;3.75;;;;;25.72;49.87;101384.69;2117600;27;47650;-67
2022/07/21 01:26:52;;;;;;;;;4.80;4.80;;;;;25.72;50.15;101384.69;2117498;27;47854;-66
2022/07/21 01:27:53;;;;;;;;;3.40;3.40;;;;;25.72;49.95;101381.97;2117461;27;47738;-68
2022/07/21 01:28:53;;;;;;;;;4.75;4.50;;;;;25.72;50.06;101383.81;2116518;27;47433;-65
2022/07/21 01:29:55;;;;;;;;;3.50;2.25;;;;;25.72;50.10;101378.38;2117587;27;47427;-65
2022/07/21 01:30:55;;;;;;;;;4.20;4.20;;;;;25.70;49.59;101370.34;2115647;27;48048;-64
2022/07/21 01:31:55;;;;;;;;;3.25;3.25;;;;;25.71;49.76;101374.78;2115034;27;47483;-67
2022/07/21 01:32:56;;;;;;;;;3.33;2.00;;;;;25.70;49.94;101370.34;2114812;27;47131;-67
2022/07/21 01:33:56;;;;;;;;;5.00;4.00;;;;;25.70;49.68;101373.06;2118002;27;46409;-68
2022/07/21 01:34:57;;;;;;;;;3.00;3.00;;;;;25.70;50.24;101373.06;2113711;27;47528;-67
2022/07/21 01:35:57;;;;;;;;;2.00;2.00;;;;;25.70;50.10;101366.75;2117278;27;47942;-68
2022/07/21 01:36:57;;;;;;;;;4.75;4.75;;;;;25.68;49.63;101363.25;2113086;27;47240;-67
2022/07/21 01:37:59;;;;;;;;;5.00;5.00;;;;;25.68;50.24;101365.97;2114702;27;47988;-66
2022/07/21 01:41:37;;;;;;;;;4.00;4.00;;;;;25.65;49.64;101358.03;2106273;27;46781;-68
2022/07/21 01:42:37;;;;;;;;;4.00;4.00;;;;;25.63;49.92;101365.44;2104201;27;47918;-69
2022/07/21 01:43:38;;;;;;;;;3.00;3.00;;;;;25.62;50.51;101363.69;2112588;27;47814;-65
2022/07/21 01:44:38;;;;;;;;;3.50;3.00;;;;;25.62;50.00;101363.69;2117980;27;47470;-66
2022/07/21 01:45:40;;;;;;;;;3.00;3.00;;;;;25.62;50.40;101366.41;2116930;27;48045;-65
2022/07/21 01:46:44;;;;;;;;;3.80;3.80;;;;;25.61;50.18;101359.25;2115587;27;47838;-68
2022/07/21 01:47:44;;;;;;;;;4.00;4.00;;;;;25.61;49.91;101360.13;2113847;27;47227;-66
2022/07/21 01:48:45;;;;;;;;;5.25;5.25;;;;;25.61;49.85;101354.69;2114296;27;47647;-68
2022/07/21 01:49:45;;;;;;;;;4.00;3.50;;;;;25.62;50.37;101358.25;2099898;27;47616;-66
2022/07/21 01:50:46;;;;;;;;;3.25;3.25;;;;;25.61;50.54;101362.84;2101342;27;47871;-68
2022/07/21 01:51:46;;;;;;;;;3.00;3.00;;;;;25.60;50.13;101358.38;2112663;27;47308;-67
2022/07/21 01:52:47;;;;;;;;;5.75;4.25;;;;;25.60;49.98;101365.66;2109293;27;47291;-67
2022/07/21 01:53:47;;;;;;;;;6.00;6.00;;;;;25.58;50.42;101365.78;2106241;27;47457;-68
2022/07/21 01:54:48;;;;;;;;;2.33;2.33;;;;;25.59;50.02;101367.53;2103619;27;47123;-70
2022/07/21 01:55:49;;;;;;;;;4.00;4.00;;;;;25.59;50.46;101370.25;2108433;27;47913;-67
2022/07/21 01:56:49;;;;;;;;;6.00;6.00;;;;;25.58;50.50;101376.66;2117900;27;46983;-68
2022/07/21 01:57:50;;;;;;;;;7.00;5.00;;;;;25.58;50.33;101373.94;2117620;27;47656;-69
2022/07/21 01:58:53;;;;;;;;;4.00;4.00;;;;;25.57;50.02;101371.34;2113753;27;47786;-65
2022/07/21 01:59:53;;;;;;;;;4.00;4.00;;;;;25.56;50.83;101373.19;2115558;27;47808;-68
2022/07/21 02:00:54;;;;;;;;;6.25;5.25;;;;;25.56;50.58;101378.63;2109145;27;45516;-67
2022/07/21 02:01:54;;;;;;;;;5.25;4.50;;;;;25.55;50.33;101379.63;2103567;27;47380;-66
2022/07/21 02:02:55;;;;;;;;;3.67;3.67;;;;;25.54;50.10;101380.59;2097053;28;47492;-63
2022/07/21 02:03:58;;;;;;;;;4.00;4.00;;;;;25.54;50.29;101377.88;2108109;27;47745;-66
2022/07/21 02:04:59;;;;;;;;;4.25;3.50;;;;;25.53;50.34;101379.69;2117316;27;47709;-67
2022/07/21 02:06:02;;;;;;;;;4.25;4.25;;;;;25.53;50.57;101379.69;2109146;27;47484;-67
2022/07/21 02:07:03;;;;;;;;;5.80;5.00;;;;;25.53;50.70;101376.97;2112879;27;47820;-67
2022/07/21 02:08:03;;;;;;;;;5.00;5.00;;;;;25.53;50.78;101381.53;2117593;27;47648;-66
2022/07/21 02:09:04;;;;;;;;;4.00;4.00;;;;;25.53;50.10;101385.13;2109967;27;47567;-68
2022/07/21 02:10:05;;;;;;;;;4.33;4.33;;;;;25.54;50.29;101383.31;2114893;27;47623;-66
2022/07/21 02:11:06;;;;;;;;;4.00;4.00;;;;;25.53;50.78;101378.84;2099357;28;48044;-65
2022/07/21 02:12:06;;;;;;;;;2.75;2.75;;;;;25.52;50.31;101379.81;2099412;27;48076;-66
2022/07/21 02:13:07;;;;;;;;;4.33;4.00;;;;;25.51;50.62;101380.81;2117322;27;47459;-66
2022/07/21 02:14:07;;;;;;;;;6.25;5.00;;;;;25.52;50.58;101379.81;2117303;27;46273;-65
2022/07/21 02:15:08;;;;;;;;;6.25;4.75;;;;;25.52;50.37;101388.84;2112741;27;47819;-66
2022/07/21 02:16:10;;;;;;;;;4.80;4.80;;;;;25.52;50.62;101380.69;2108709;27;47941;-63
2022/07/21 02:17:10;;;;;;;;;4.00;4.00;;;;;25.52;50.93;101387.97;2116597;27;48215;-61
2022/07/21 02:18:10;;;;;;;;;4.50;4.50;;;;;25.52;50.42;101388.84;2117429;27;48174;-66
2022/07/21 02:19:11;;;;;;;;;3.00;3.00;;;;;25.53;50.32;101384.25;2117145;27;47591;-67
2022/07/21 02:20:11;;;;;;;;;5.00;5.00;;;;;25.52;50.48;101394.28;2117080;27;47657;-65
2022/07/21 02:21:12;;;;;;;;;6.25;4.25;;;;;25.51;50.56;101392.53;2116277;27;47107;-67
2022/07/21 02:22:12;;;;;;;;;5.75;5.00;;;;;25.49;50.78;101389.06;2109010;27;47575;-65
2022/07/21 02:23:23;;;;;;;;;4.75;4.25;;;;;25.49;51.01;101393.63;2112101;27;47516;-67
2022/07/21 02:24:24;;;;;;;;;4.80;4.40;;;;;25.49;50.93;101391.78;2109557;27;47867;-67
2022/07/21 02:25:24;;;;;;;;;4.25;4.25;;;;;25.48;50.39;101390.06;2117417;27;47987;-65
2022/07/21 02:26:25;;;;;;;;;5.75;5.50;;;;;25.48;50.70;101394.63;2114052;27;47612;-67
2022/07/21 02:27:25;;;;;;;;;6.00;6.00;;;;;25.49;50.53;101393.63;2117111;27;47193;-65
2022/07/21 02:28:26;;;;;;;;;6.50;6.25;;;;;25.48;51.07;101390.06;2109768;27;47678;-66
2022/07/21 02:29:27;;;;;;;;;7.00;6.80;;;;;25.49;51.06;101388.19;2114338;27;47547;-62
2022/07/21 02:30:27;;;;;;;;;4.50;4.50;;;;;25.48;50.42;101392.78;2116273;27;47813;-60
2022/07/21 02:31:28;;;;;;;;;5.00;5.00;;;;;25.48;50.94;101381.91;2105755;27;47478;-65
2022/07/21 02:32:28;;;;;;;;;5.00;5.00;;;;;25.48;50.70;101390.06;2105781;27;47471;-64
2022/07/21 02:33:29;;;;;;;;;7.75;6.75;;;;;25.47;50.82;101382.88;2117275;27;47773;-64
2022/07/21 02:34:29;;;;;;;;;6.75;6.75;;;;;25.47;50.66;101380.16;2118355;27;46410;-64
2022/07/21 02:35:30;;;;;;;;;7.00;6.75;;;;;25.48;50.81;101381.03;2117033;27;47535;-64
2022/07/21 02:36:30;;;;;;;;;6.00;6.00;;;;;25.48;50.36;101383.75;2117209;27;47801;-64
2022/07/21 02:37:30;;;;;;;;;7.00;7.00;;;;;25.47;50.34;101382.00;2117192;27;46534;-64
2022/07/21 02:38:31;;;;;;;;;5.00;4.75;;;;;25.47;50.66;101380.16;2121472;27;48039;-64
2022/07/21 02:39:31;;;;;;;;;7.25;7.25;;;;;25.46;51.10;101381.16;2096102;28;47216;-64
2022/07/21 02:40:32;;;;;;;;;5.00;5.00;;;;;25.46;50.76;101383.00;2093697;28;47797;-65
2022/07/21 02:41:32;;;;;;;;;7.50;7.50;;;;;25.45;50.59;101381.25;2112298;27;47751;-64
2022/07/21 02:42:33;;;;;;;;;6.00;6.00;;;;;25.45;51.13;101387.56;2120456;27;47203;-64
2022/07/21 02:43:33;;;;;;;;;7.00;7.00;;;;;25.45;51.03;101383.97;2112234;27;47287;-63
2022/07/21 02:44:33;;;;;;;;;8.50;8.50;;;;;25.45;50.59;101381.25;2104713;27;47370;-64
2022/07/21 02:45:36;;;;;;;;;8.00;7.25;;;;;25.45;50.73;101387.56;2121974;27;47104;-64
2022/07/21 02:46:37;;;;;;;;;8.80;8.80;;;;;25.47;51.01;101384.72;2115690;27;47518;-65
2022/07/21 02:47:57;;;;;;;;;7.75;6.50;;;;;25.46;50.38;101392.03;2094480;28;47811;-64
2022/07/21 02:48:57;;;;;;;;;4.20;3.80;;;;;25.46;50.53;101400.19;2096976;27;47475;-63
2022/07/21 02:49:58;;;;;;;;;8.25;8.25;;;;;25.46;50.73;101399.31;2120749;27;47394;-63
2022/07/21 02:50:58;;;;;;;;;9.50;9.50;;;;;25.46;50.83;101391.16;2120307;27;47382;-63
2022/07/21 02:51:59;;;;;;;;;12.75;12.00;;;;;25.45;51.11;101397.56;2118198;27;47765;-64
2022/07/21 02:53:02;;;;;;;;;8.00;7.67;;;;;25.45;50.52;101397.56;2115550;27;47511;-64
2022/07/21 02:54:03;;;;;;;;;9.00;8.00;;;;;25.43;51.00;101400.41;2121626;27;47619;-65
2022/07/21 02:55:03;;;;;;;;;9.75;9.75;;;;;25.42;50.54;101395.94;2119202;27;47596;-64
2022/07/21 02:56:04;;;;;;;;;9.00;8.00;;;;;25.43;50.79;101404.97;2121408;27;47303;-64
2022/07/21 02:57:05;;;;;;;;;13.00;10.25;;;;;25.42;50.85;101397.81;2106143;27;47966;-63
2022/07/21 02:58:06;;;;;;;;;12.00;12.00;;;;;25.42;50.88;101404.09;2112474;27;47501;-64
2022/07/21 02:59:07;;;;;;;;;7.60;7.60;;;;;25.42;51.04;101400.53;2115139;27;47326;-65
2022/07/21 03:00:09;;;;;;;;;9.00;9.00;;;;;25.40;50.71;101403.31;2121110;27;48079;-63
2022/07/21 03:01:10;;;;;;;;;8.00;8.00;;;;;25.39;50.73;101407.03;2118395;27;47919;-64
2022/07/21 03:02:11;;;;;;;;;11.60;10.80;;;;;25.37;50.70;101398.13;2119168;27;48055;-64
2022/07/21 03:03:12;;;;;;;;;6.75;6.75;;;;;25.36;50.75;101406.38;2121235;27;46039;-63
2022/07/21 03:04:12;;;;;;;;;9.40;9.40;;;;;25.35;51.09;101401.94;2121260;27;47539;-64
2022/07/21 03:05:12;;;;;;;;;7.00;7.00;;;;;25.35;50.54;101404.66;2122707;27;47873;-64
2022/07/21 03:06:13;;;;;;;;;8.75;8.75;;;;;25.33;51.23;101404.75;2122820;27;47243;-64
2022/07/21 03:07:13;;;;;;;;;9.00;9.00;;;;;25.33;51.21;101403.91;2122981;27;47728;-65
2022/07/21 03:08:15;;;;;;;;;11.25;11.25;;;;;25.32;51.23;101399.44;2122513;27;47931;-64
2022/07/21 03:09:15;;;;;;;;;8.40;8.40;;;;;25.32;51.02;101403.03;2122862;27;47273;-64
2022/07/21 03:10:16;;;;;;;;;10.75;10.75;;;;;25.33;51.00;101412.06;2123033;27;47399;-64
2022/07/21 03:11:16;;;;;;;;;13.25;13.25;;;;;25.33;50.78;101406.63;2113983;27;47028;-64
2022/07/21 03:12:16;;;;;;;;;14.50;12.50;;;;;25.33;50.76;101406.63;2114381;27;47624;-64
2022/07/21 03:13:17;;;;;;;;;10.00;10.00;;;;;25.33;50.99;101404.75;2123246;27;47331;-64
2022/07/21 03:14:18;;;;;;;;;9.50;8.50;;;;;25.33;51.35;101409.34;2119541;27;47369;-65
2022/07/21 03:15:18;;;;;;;;;11.75;11.75;;;;;25.32;50.81;101403.03;2122875;27;47646;-64
2022/07/21 03:16:19;;;;;;;;;6.00;6.00;;;;;25.32;50.79;101413.03;2118911;27;47956;-65
2022/07/21 03:17:19;;;;;;;;;12.25;10.75;;;;;25.30;50.76;101406.84;2118380;27;47195;-64
2022/07/21 03:18:19;;;;;;;;;10.25;10.00;;;;;25.28;50.66;101409.66;2115311;27;47206;-63
2022/07/21 03:19:20;;;;;;;;;10.75;10.00;;;;;25.28;51.41;101417.78;2118127;27;47757;-64
2022/07/21 03:20:25;;;;;;;;;9.75;9.75;;;;;25.28;51.41;101408.78;2116421;27;48205;-64
2022/07/21 03:21:25;;;;;;;;;11.80;10.20;;;;;25.28;50.87;101406.94;2122422;27;47506;-63
2022/07/21 03:22:26;;;;;;;;;10.50;10.50;;;;;25.29;51.46;101411.41;2094486;28;45658;-64
2022/07/21 03:23:26;;;;;;;;;12.25;11.50;;;;;25.29;50.95;101408.69;2085966;28;47048;-63
2022/07/21 03:24:27;;;;;;;;;10.50;10.50;;;;;25.29;50.86;101407.84;2083068;28;47332;-64
2022/07/21 03:25:28;;;;;;;;;10.50;10.00;;;;;25.29;50.93;101405.97;2084322;28;48192;-63
2022/07/21 03:26:31;;;;;;;;;12.80;12.60;;;;;25.29;51.21;101407.84;2079885;28;47757;-63
2022/07/21 03:27:35;;;;;;;;;7.00;7.00;;;;;25.28;50.98;101406.06;2091953;28;48279;-64
2022/07/21 03:28:36;;;;;;;;;11.40;11.40;;;;;25.28;50.89;101408.78;2096349;28;47746;-64
2022/07/21 03:29:36;;;;;;;;;13.25;13.25;;;;;25.26;50.95;101408.91;2088449;28;47497;-64
2022/07/21 03:30:36;;;;;;;;;11.00;10.00;;;;;25.26;51.45;101414.31;2091893;28;47932;-64
2022/07/21 03:31:37;;;;;;;;;11.50;11.50;;;;;25.26;51.04;101414.31;2086153;28;47136;-63
2022/07/21 03:32:38;;;;;;;;;10.75;10.75;;;;;25.26;50.83;101418.91;2083172;28;47216;-64
2022/07/21 03:33:38;;;;;;;;;15.50;11.00;;;;;25.26;51.01;101417.03;2096637;28;47771;-64
2022/07/21 03:34:38;;;;;;;;;12.25;11.00;;;;;25.24;51.54;101424.44;2090253;28;45741;-63
2022/07/21 03:35:39;;;;;;;;;11.25;11.00;;;;;25.22;51.16;101419.13;2093394;28;48070;-64
2022/07/21 03:36:39;;;;;;;;;11.25;11.00;;;;;25.21;50.83;101416.53;2096241;28;47583;-65
2022/07/21 03:38:06;;;;;;;;;11.00;10.00;;;;;25.21;51.14;101424.66;2096147;28;47581;-64
2022/07/21 03:39:06;;;;;;;;;10.60;9.40;;;;;25.19;51.47;101421.19;2095639;28;47549;-64
2022/07/21 03:40:07;;;;;;;;;8.50;8.50;;;;;25.19;51.49;101427.50;2094871;28;47467;-65
2022/07/21 03:41:08;;;;;;;;;10.60;9.80;;;;;25.18;51.26;101428.47;2080365;28;47922;-65
2022/07/21 03:42:08;;;;;;;;;10.00;9.00;;;;;25.17;51.06;101425.88;2081944;28;46962;-62
2022/07/21 03:43:08;;;;;;;;;13.00;13.00;;;;;25.16;50.90;101426.84;2096132;28;47520;-64
2022/07/21 03:44:09;;;;;;;;;11.25;9.75;;;;;25.15;51.32;101425.97;2096103;28;48046;-64
2022/07/21 03:45:11;;;;;;;;;10.75;10.75;;;;;25.15;51.22;101431.38;2095972;28;48111;-63
2022/07/21 03:46:11;;;;;;;;;11.40;11.40;;;;;25.14;51.23;101432.38;2096281;28;47728;-65
2022/07/21 03:47:12;;;;;;;;;10.25;9.75;;;;;25.13;50.91;101422.50;2095906;28;47704;-64
2022/07/21 03:48:13;;;;;;;;;10.75;10.75;;;;;25.15;51.44;101430.53;2094528;28;47641;-62
2022/07/21 03:49:13;;;;;;;;;12.25;12.25;;;;;25.13;51.54;101432.50;2087362;28;47883;-63
2022/07/21 03:50:17;;;;;;;;;12.75;12.75;;;;;25.13;51.24;101424.34;2087559;28;47604;-64
2022/07/21 03:51:17;;;;;;;;;12.80;12.80;;;;;25.12;51.62;101428.91;2094864;28;47450;-64
2022/07/21 03:52:17;;;;;;;;;12.75;12.75;;;;;25.12;51.27;101431.63;2096226;28;47320;-63
2022/07/21 03:53:18;;;;;;;;;12.00;12.00;;;;;25.12;51.21;101428.03;2095836;28;47612;-63
2022/07/21 03:54:18;;;;;;;;;12.50;12.50;;;;;25.12;51.10;101433.47;2093036;28;47220;-63
2022/07/21 03:55:20;;;;;;;;;13.75;11.50;;;;;25.13;51.37;101429.78;2087498;28;47121;-64
2022/07/21 03:56:20;;;;;;;;;13.60;13.60;;;;;25.12;51.45;101436.19;2089156;28;46623;-62
2022/07/21 03:57:20;;;;;;;;;11.00;11.00;;;;;25.11;51.46;101435.31;2095152;28;47986;-63
2022/07/21 03:58:21;;;;;;;;;14.50;14.50;;;;;25.11;51.16;101443.47;2095989;28;47348;-62
2022/07/21 03:59:21;;;;;;;;;11.75;11.75;;;;;25.11;51.06;101439.88;2103601;28;48132;-61
2022/07/21 04:00:31;;;;;;;;;15.50;14.75;;;;;25.11;51.05;101439.88;2102496;27;47700;-63
2022/07/21 04:01:32;;;;;;;;;12.60;12.60;;;;;25.09;51.39;101434.56;2101049;27;47904;-61
2022/07/21 04:02:32;;;;;;;;;13.25;13.25;;;;;25.08;51.29;101440.97;2102408;28;47636;-60
2022/07/21 04:03:35;;;;;;;;;11.50;11.25;;;;;25.07;51.09;101432.94;2102219;28;47390;-63
2022/07/21 04:04:35;;;;;;;;;11.60;11.60;;;;;25.08;51.17;101442.81;2102609;28;48249;-61
2022/07/21 04:05:36;;;;;;;;;12.75;12.75;;;;;25.08;51.48;101431.97;2104565;28;47075;-62
2022/07/21 04:06:37;;;;;;;;;14.00;13.00;;;;;25.07;51.42;101433.81;2102525;27;47666;-62
2022/07/21 04:07:42;;;;;;;;;16.00;14.25;;;;;25.07;51.20;101435.66;2103170;28;47827;-63
2022/07/21 04:08:43;;;;;;;;;16.00;14.80;;;;;25.05;51.20;101433.06;2096087;28;48295;-62
2022/07/21 04:09:43;;;;;;;;;15.00;15.00;;;;;25.06;51.51;101444.78;2100564;28;47913;-61
2022/07/21 04:10:44;;;;;;;;;13.25;13.25;;;;;25.04;51.12;101433.16;2095808;28;47771;-64
2022/07/21 04:11:44;;;;;;;;;17.25;15.25;;;;;25.03;50.98;101439.53;2094811;28;47523;-62
2022/07/21 04:12:45;;;;;;;;;12.25;12.25;;;;;25.03;51.38;101436.81;2104606;27;47406;-65
2022/07/21 04:13:46;;;;;;;;;16.25;15.25;;;;;25.01;51.25;101442.38;2113007;27;47472;-63
2022/07/21 04:14:46;;;;;;;;;14.00;13.50;;;;;24.99;51.33;101440.72;2103701;27;47561;-65
2022/07/21 04:15:46;;;;;;;;;14.25;14.00;;;;;24.98;51.30;101444.41;2103064;27;47181;-64
2022/07/21 04:16:47;;;;;;;;;15.75;15.75;;;;;24.97;51.43;101439.97;2113037;27;47892;-63
2022/07/21 04:17:48;;;;;;;;;14.75;14.75;;;;;24.97;51.48;101448.09;2105963;27;47856;-63
2022/07/21 04:18:48;;;;;;;;;15.00;15.00;;;;;24.95;51.41;101437.34;2105164;27;47670;-64
2022/07/21 04:19:49;;;;;;;;;18.00;16.75;;;;;24.95;51.51;101445.50;2111624;27;47142;-64
2022/07/21 04:20:49;;;;;;;;;16.00;16.00;;;;;24.94;51.37;101443.75;2111173;27;47616;-63
2022/07/21 04:21:50;;;;;;;;;8.75;8.75;;;;;24.93;51.43;101447.47;2114181;27;47888;-64
2022/07/21 04:22:51;;;;;;;;;15.75;15.00;;;;;24.91;51.80;101444.00;2104031;27;47659;-65
2022/07/21 04:23:51;;;;;;;;;15.60;14.60;;;;;24.90;51.47;101445.84;2104335;27;48139;-64
2022/07/21 04:24:52;;;;;;;;;17.50;17.50;;;;;24.91;51.97;101444.00;2105646;27;47336;-64
2022/07/21 04:25:53;;;;;;;;;18.00;17.50;;;;;24.90;51.73;101443.13;2103733;27;47837;-64
2022/07/21 04:26:53;;;;;;;;;14.40;14.40;;;;;24.90;51.67;101453.09;2095405;28;47678;-63
2022/07/21 04:27:54;;;;;;;;;17.25;17.25;;;;;24.91;51.58;101450.28;2095736;28;47824;-64
2022/07/21 04:28:55;;;;;;;;;18.50;18.50;;;;;24.90;51.68;101450.38;2101923;27;47566;-64
2022/07/21 04:29:55;;;;;;;;;13.20;13.20;;;;;24.90;51.96;101453.09;2104086;28;46527;-64
2022/07/21 04:30:56;;;;;;;;;15.75;15.25;;;;;24.89;52.01;101446.78;2102928;28;47419;-65
2022/07/21 04:31:56;;;;;;;;;15.00;15.00;;;;;24.89;51.55;101452.22;2098219;28;47595;-64
2022/07/21 04:32:57;;;;;;;;;16.25;16.25;;;;;24.89;52.30;101454.94;2105005;27;46555;-64
2022/07/21 04:33:57;;;;;;;;;17.75;17.00;;;;;24.90;51.45;101459.41;2105554;27;47439;-64
2022/07/21 04:34:57;;;;;;;;;18.75;16.50;;;;;24.92;52.10;101456.59;2099490;27;47707;-65
2022/07/21 04:35:58;;;;;;;;;16.50;16.50;;;;;24.91;51.56;101457.56;2097838;27;47474;-63
2022/07/21 04:36:58;;;;;;;;;18.50;17.75;;;;;24.91;51.89;101454.84;2110524;27;47545;-64
2022/07/21 04:37:59;;;;;;;;;21.00;17.75;;;;;24.90;52.25;101451.28;2100310;27;47267;-65
2022/07/21 04:38:59;;;;;;;;;18.00;17.75;;;;;24.91;52.27;101457.56;2086876;28;47646;-63
2022/07/21 04:40:00;;;;;;;;;17.50;17.50;;;;;24.91;52.40;101454.84;2080494;28;45892;-66
2022/07/21 04:41:01;;;;;;;;;18.00;17.20;;;;;24.92;52.23;101459.31;2097742;27;47559;-63
2022/07/21 04:42:01;;;;;;;;;16.00;16.00;;;;;24.92;52.33;101456.59;2105485;27;47091;-63
2022/07/21 04:43:02;;;;;;;;;18.75;17.25;;;;;24.93;52.22;101458.31;2104302;27;47735;-63
2022/07/21 04:44:02;;;;;;;;;14.50;14.00;;;;;24.94;52.15;101449.19;2104942;28;45786;-63